createdAt,value
2022-12-01T05:09:45.583Z,37.42
2022-12-01T05:12:17.417Z,40.53
2022-12-01T05:14:45.576Z,38.70
2022-12-01T05:17:13.830Z,38.97
2022-12-01T05:19:59.545Z,39.35
2022-12-01T06:34:40.763Z,38.72
2022-12-01T06:37:10.002Z,38.83
2022-12-01T06:39:38.385Z,39.22
2022-12-01T06:42:06.568Z,37.88
2022-12-01T06:44:34.836Z,38.80
2022-12-01T06:47:02.765Z,38.88
2022-12-01T06:49:30.881Z,37.63
2022-12-01T06:52:00.976Z,36.00
2022-12-01T06:54:31.012Z,36.95
2022-12-01T06:56:59.199Z,34.88
2022-12-01T06:59:27.287Z,37.13
2022-12-01T07:01:56.910Z,38.10
2022-12-01T07:04:24.804Z,34.65
2022-12-01T07:06:53.157Z,33.28
2022-12-01T07:09:21.204Z,35.35
2022-12-01T07:11:50.377Z,34.05
2022-12-01T07:14:23.671Z,36.22
2022-12-01T07:16:51.840Z,35.25
2022-12-01T07:19:20.385Z,35.03
2022-12-01T07:21:48.230Z,34.85
2022-12-01T07:24:16.013Z,34.65
2022-12-01T07:26:44.944Z,34.00
2022-12-01T07:29:14.148Z,31.77
2022-12-01T07:31:42.439Z,33.53
2022-12-01T07:34:12.783Z,34.90
2022-12-01T07:36:40.741Z,33.30
2022-12-01T07:39:09.744Z,34.38
2022-12-01T07:41:37.682Z,33.67
2022-12-01T07:44:06.028Z,34.67
2022-12-01T07:46:35.239Z,35.10
2022-12-01T07:49:06.615Z,32.70
2022-12-01T07:51:35.039Z,33.28
2022-12-01T07:54:04.647Z,33.58
2022-12-01T07:56:32.689Z,34.85
2022-12-01T07:59:01.288Z,35.47
2022-12-01T08:01:29.034Z,34.28
2022-12-01T08:04:00.862Z,35.67
2022-12-01T08:06:28.814Z,36.00
2022-12-01T08:08:56.954Z,32.47
2022-12-01T08:11:27.160Z,37.40
2022-12-01T08:13:55.112Z,35.17
2022-12-01T08:16:24.825Z,33.53
2022-12-01T08:18:52.581Z,33.97
2022-12-01T08:21:24.263Z,34.50
2022-12-01T08:23:54.950Z,32.60
2022-12-01T08:26:24.687Z,34.60
2022-12-01T08:28:52.541Z,35.42
2022-12-01T08:31:22.504Z,38.40
2022-12-01T08:33:51.817Z,35.70
2022-12-01T08:36:21.554Z,32.90
2022-12-01T08:38:51.804Z,33.92
2022-12-01T08:41:20.290Z,32.58
2022-12-01T08:44:03.468Z,32.70
2022-12-01T08:46:35.041Z,30.88
2022-12-01T08:49:03.643Z,32.10
2022-12-01T08:51:33.958Z,31.52
2022-12-01T08:54:02.161Z,32.30
2022-12-01T08:56:33.075Z,32.08
2022-12-01T08:59:01.238Z,30.92
2022-12-01T09:01:29.641Z,32.28
2022-12-01T09:04:09.065Z,30.73
2022-12-01T09:06:43.156Z,32.13
2022-12-01T09:09:14.849Z,31.35
2022-12-01T09:11:43.818Z,32.47
2022-12-01T09:14:12.750Z,30.58
2022-12-01T09:16:40.854Z,31.77
2022-12-01T09:19:09.444Z,30.67
2022-12-01T09:21:38.117Z,34.10
2022-12-01T09:24:09.623Z,33.28
2022-12-01T09:26:37.453Z,32.88
2022-12-01T09:29:07.070Z,31.52
2022-12-01T09:31:35.978Z,31.52
2022-12-01T09:34:06.868Z,32.25
2022-12-01T09:36:36.400Z,32.13
2022-12-01T09:39:05.111Z,31.58
2022-12-01T09:41:36.969Z,31.95
2022-12-01T09:44:14.187Z,31.52
2022-12-01T09:46:47.601Z,32.42
2022-12-01T09:49:22.849Z,33.25
2022-12-01T09:51:51.705Z,34.10
2022-12-01T09:54:19.596Z,32.90
2022-12-01T09:56:59.756Z,33.65
2022-12-01T09:59:32.825Z,31.92
2022-12-01T10:02:03.880Z,32.75
2022-12-01T10:04:38.214Z,31.48
2022-12-01T10:07:15.387Z,32.47
2022-12-01T10:09:54.990Z,32.78
2022-12-01T10:12:28.432Z,33.38
2022-12-01T10:15:04.559Z,33.55
2022-12-01T10:17:43.025Z,33.08
2022-12-01T10:20:17.748Z,32.80
2022-12-01T10:23:00.075Z,31.52
2022-12-01T10:25:32.760Z,30.63
2022-12-01T10:28:15.961Z,32.95
2022-12-01T10:30:51.022Z,31.27
2022-12-01T10:33:24.701Z,32.47
2022-12-01T10:35:52.886Z,30.88
2022-12-01T10:38:28.488Z,31.55
2022-12-01T10:40:58.521Z,30.83
2022-12-01T10:43:34.127Z,31.58
2022-12-01T10:46:06.802Z,30.25
2022-12-01T10:48:35.074Z,30.42
2022-12-01T10:51:17.072Z,30.58
2022-12-01T10:53:45.159Z,31.38
2022-12-01T10:56:16.704Z,29.85
2022-12-01T10:58:48.817Z,28.95
2022-12-01T11:01:20.506Z,30.15
2022-12-01T11:03:54.276Z,29.05
2022-12-01T11:06:25.568Z,27.92
2022-12-01T11:08:57.395Z,26.67
2022-12-01T11:11:32.452Z,27.27
2022-12-01T11:14:04.502Z,26.27
2022-12-01T11:16:39.765Z,28.08
2022-12-01T11:21:56.742Z,24.52
2022-12-01T11:24:42.663Z,25.40
2022-12-01T11:27:18.360Z,24.20
2022-12-01T11:29:51.445Z,23.98
2022-12-01T11:32:23.308Z,25.50
2022-12-01T11:34:55.498Z,23.23
2022-12-01T11:37:25.995Z,24.83
2022-12-01T11:39:53.973Z,24.50
2022-12-01T11:42:27.673Z,25.35
2022-12-01T11:45:01.841Z,24.50
2022-12-01T11:47:30.451Z,22.95
2022-12-01T11:50:00.725Z,21.48
2022-12-01T11:52:31.730Z,22.60
2022-12-01T11:55:09.869Z,23.17
2022-12-01T11:57:40.852Z,22.98
2022-12-01T12:00:16.555Z,21.67
2022-12-01T12:02:57.685Z,22.02
2022-12-01T12:05:45.656Z,22.58
2022-12-01T12:08:26.216Z,23.52
2022-12-01T12:11:03.369Z,23.83
2022-12-01T12:13:51.293Z,23.20
2022-12-01T12:16:33.693Z,23.25
2022-12-01T12:19:14.152Z,23.63
2022-12-01T12:21:50.073Z,23.02
2022-12-01T12:24:35.156Z,25.17
2022-12-01T12:27:11.532Z,23.65
2022-12-01T12:29:54.450Z,22.92
2022-12-01T12:32:38.856Z,23.75
2022-12-01T12:35:21.261Z,22.83
2022-12-01T12:38:04.285Z,24.75
2022-12-01T12:40:43.801Z,25.58
2022-12-01T12:43:23.651Z,24.95
2022-12-01T12:46:08.887Z,25.63
2022-12-01T12:49:18.485Z,23.00
2022-12-01T12:51:51.119Z,24.08
2022-12-01T12:54:27.578Z,23.15
2022-12-01T12:57:02.303Z,25.70
2022-12-01T12:59:35.385Z,24.55
2022-12-01T13:02:14.359Z,26.15
2022-12-01T13:04:53.173Z,25.10
2022-12-01T13:07:33.709Z,24.80
2022-12-01T13:10:08.067Z,26.88
2022-12-01T13:12:40.407Z,25.92
2022-12-01T13:15:17.866Z,24.92
2022-12-01T13:17:50.728Z,27.30
2022-12-01T13:20:24.907Z,27.50
2022-12-01T13:22:55.041Z,27.15
2022-12-01T13:25:28.459Z,28.63
2022-12-01T13:27:58.480Z,27.48
2022-12-01T13:30:27.890Z,26.67
2022-12-01T13:33:02.648Z,26.15
2022-12-01T13:35:34.354Z,26.50
2022-12-01T13:38:21.911Z,26.33
2022-12-01T13:40:50.889Z,25.70
2022-12-01T13:43:22.252Z,24.48
2022-12-01T13:45:51.828Z,25.88
2022-12-01T13:48:30.489Z,24.30
2022-12-01T13:51:03.123Z,22.77
2022-12-01T13:53:34.718Z,24.17
2022-12-01T13:56:25.360Z,23.70
2022-12-01T13:58:55.752Z,23.48
2022-12-01T14:02:08.880Z,25.83
2022-12-01T14:04:37.637Z,24.77
2022-12-01T14:07:41.219Z,26.85
2022-12-01T14:10:26.797Z,25.83
2022-12-01T14:12:58.571Z,25.50
2022-12-01T14:15:34.942Z,25.15
2022-12-01T14:18:07.552Z,24.05
2022-12-01T14:20:45.217Z,22.60
2022-12-01T14:23:18.916Z,23.10
2022-12-01T14:26:00.960Z,24.88
2022-12-01T14:29:04.871Z,24.48
2022-12-01T14:32:21.976Z,23.35
2022-12-01T14:35:00.083Z,23.45
2022-12-01T14:37:36.620Z,23.10
2022-12-01T14:40:12.578Z,23.05
2022-12-01T14:43:01.918Z,22.10
2022-12-01T14:45:36.870Z,20.95
2022-12-01T14:48:07.719Z,22.30
2022-12-01T14:50:46.814Z,22.63
2022-12-01T14:53:26.125Z,22.20
2022-12-01T14:55:58.360Z,24.20
2022-12-01T14:58:28.403Z,24.42
2022-12-01T15:01:07.264Z,31.83
2022-12-01T15:03:39.698Z,48.22
2022-12-01T15:06:08.904Z,30.58
2022-12-01T15:08:49.429Z,24.13
2022-12-01T15:11:30.364Z,24.50
2022-12-01T15:13:59.398Z,29.45
2022-12-01T15:16:32.213Z,26.33
2022-12-01T15:19:00.259Z,23.17
2022-12-01T15:21:31.231Z,23.33
2022-12-01T15:24:01.324Z,31.13
2022-12-01T15:26:33.816Z,36.28
2022-12-01T15:29:16.189Z,29.58
2022-12-01T15:31:45.860Z,26.63
2022-12-01T15:41:35.112Z,24.05
2022-12-01T15:44:05.717Z,25.65
2022-12-01T15:46:35.593Z,27.83
2022-12-01T15:49:11.347Z,26.48
2022-12-01T15:51:39.591Z,25.63
2022-12-01T15:54:17.777Z,25.50
2022-12-01T15:56:47.252Z,26.40
2022-12-01T15:59:27.462Z,28.42
2022-12-01T16:01:57.883Z,37.03
2022-12-01T16:04:32.870Z,29.50
2022-12-01T16:07:06.100Z,27.90
2022-12-01T16:09:37.707Z,38.72
2022-12-01T16:12:24.203Z,38.53
2022-12-01T16:15:19.045Z,28.98
2022-12-01T16:17:50.132Z,26.60
2022-12-01T16:20:24.184Z,28.48
2022-12-01T16:25:45.815Z,27.05
2022-12-01T16:28:23.345Z,27.63
2022-12-01T16:30:54.020Z,28.30
2022-12-01T16:33:24.531Z,27.88
2022-12-01T16:35:53.588Z,28.23
2022-12-01T16:38:23.011Z,27.42
2022-12-01T16:40:52.958Z,29.48
2022-12-01T16:43:23.026Z,29.90
2022-12-01T16:46:00.569Z,28.98
2022-12-01T16:48:28.956Z,31.00
2022-12-01T16:50:57.875Z,36.13
2022-12-01T16:53:26.355Z,36.17
2022-12-01T16:55:56.134Z,29.95
2022-12-01T16:58:24.639Z,29.40
2022-12-01T17:00:54.312Z,31.95
2022-12-01T17:03:23.865Z,30.92
2022-12-01T17:05:52.410Z,31.40
2022-12-01T17:08:20.821Z,30.05
2022-12-01T17:10:51.024Z,30.13
2022-12-01T17:13:19.830Z,32.72
2022-12-01T17:15:50.247Z,29.98
2022-12-01T17:18:21.798Z,32.22
2022-12-01T17:20:58.627Z,34.15
2022-12-01T17:23:28.124Z,33.00
2022-12-01T17:25:56.847Z,31.98
2022-12-01T17:28:25.147Z,32.17
2022-12-01T17:30:53.192Z,32.88
2022-12-01T17:33:23.132Z,31.52
2022-12-01T17:35:50.992Z,31.30
2022-12-01T17:38:19.220Z,31.77
2022-12-01T17:40:47.050Z,32.50
2022-12-01T17:43:15.411Z,32.67
2022-12-01T17:45:44.425Z,33.70
2022-12-01T17:48:12.691Z,33.90
2022-12-01T17:50:42.013Z,33.42
2022-12-01T17:53:10.353Z,34.35
2022-12-01T17:55:40.222Z,38.13
2022-12-01T17:58:08.146Z,34.83
2022-12-01T18:00:36.626Z,34.42
2022-12-01T18:03:04.668Z,34.00
2022-12-01T18:05:32.769Z,34.72
2022-12-01T18:08:02.669Z,36.53
2022-12-01T18:10:30.634Z,38.17
2022-12-01T18:12:58.925Z,34.20
2022-12-01T18:15:31.819Z,33.50
2022-12-01T18:18:03.071Z,33.33
2022-12-01T18:20:30.890Z,31.95
2022-12-01T18:22:59.298Z,33.25
2022-12-01T18:25:28.638Z,32.97
2022-12-01T18:27:59.227Z,32.63
2022-12-01T18:30:27.150Z,33.30
2022-12-01T18:32:55.094Z,34.65
2022-12-01T18:35:27.416Z,35.55
2022-12-01T18:37:58.217Z,33.63
2022-12-01T18:40:26.468Z,34.92
2022-12-01T18:42:55.840Z,32.67
2022-12-01T18:45:24.455Z,34.60
2022-12-01T18:47:52.423Z,38.33
2022-12-01T18:50:20.831Z,35.17
2022-12-01T18:52:48.670Z,34.63
2022-12-01T18:55:16.627Z,35.10
2022-12-01T18:57:47.513Z,33.40
2022-12-01T19:00:17.797Z,33.95
2022-12-01T19:02:47.306Z,36.60
2022-12-01T19:05:15.128Z,35.03
2022-12-01T19:07:43.385Z,34.80
2022-12-01T19:10:12.048Z,34.58
2022-12-01T19:12:41.230Z,35.72
2022-12-01T19:15:10.555Z,35.22
2022-12-01T19:17:40.640Z,35.03
2022-12-01T19:20:09.729Z,36.63
2022-12-01T19:22:38.175Z,36.50
2022-12-01T19:25:06.682Z,34.35
2022-12-01T19:27:34.425Z,35.67
2022-12-01T19:30:02.766Z,39.13
2022-12-01T19:32:32.176Z,36.70
2022-12-01T19:35:02.115Z,36.38
2022-12-01T19:37:30.123Z,36.83
2022-12-01T19:39:58.256Z,39.97
2022-12-01T19:42:26.748Z,38.67
2022-12-01T19:44:54.850Z,38.70
2022-12-01T19:47:23.107Z,38.33
2022-12-01T19:49:51.117Z,43.17
2022-12-01T19:52:20.510Z,40.75
2022-12-01T19:54:49.163Z,40.65
2022-12-01T19:57:17.487Z,40.15
2022-12-01T19:59:45.900Z,43.25
2022-12-01T20:02:14.081Z,39.97
2022-12-01T20:04:42.134Z,40.53
2022-12-01T20:07:10.381Z,40.63
2022-12-01T20:09:44.346Z,39.70
2022-12-01T20:12:15.658Z,38.60
2022-12-01T20:14:43.620Z,39.53
2022-12-01T20:17:15.726Z,39.35
2022-12-01T20:19:44.104Z,41.40
2022-12-01T20:22:12.064Z,39.10
2022-12-01T20:24:42.508Z,40.30
2022-12-01T20:27:10.760Z,41.90
2022-12-01T20:29:38.942Z,38.67
2022-12-01T20:32:07.771Z,39.08
2022-12-01T20:34:38.049Z,40.58
2022-12-01T20:37:06.046Z,40.63
2022-12-01T20:39:37.002Z,39.95
2022-12-01T20:42:06.577Z,42.65
2022-12-01T20:44:35.275Z,40.42
2022-12-01T20:47:03.257Z,39.83
2022-12-01T20:49:31.688Z,41.53
2022-12-01T20:51:59.592Z,40.72
2022-12-01T20:54:29.166Z,40.55
2022-12-01T20:56:57.817Z,41.65
2022-12-01T20:59:27.882Z,43.05
2022-12-01T21:01:56.303Z,42.70
2022-12-01T21:04:24.572Z,43.22
2022-12-01T21:06:53.566Z,45.08
2022-12-01T21:09:21.411Z,43.17
2022-12-01T21:12:09.080Z,44.20
2022-12-01T21:14:42.527Z,41.47
2022-12-01T21:17:25.585Z,41.90
2022-12-01T21:19:57.447Z,44.50
2022-12-01T21:22:26.816Z,40.78
2022-12-01T21:25:02.768Z,43.08
2022-12-01T21:27:31.248Z,44.13
2022-12-01T21:30:00.598Z,45.75
2022-12-01T21:32:32.619Z,43.55
2022-12-01T21:35:04.272Z,44.75
2022-12-01T21:37:32.917Z,42.00
2022-12-01T21:40:01.685Z,41.38
2022-12-01T21:42:32.440Z,43.90
2022-12-01T21:45:01.886Z,43.78
2022-12-01T21:47:31.952Z,42.85
2022-12-01T21:50:04.246Z,40.75
2022-12-01T21:52:40.263Z,42.45
2022-12-01T21:55:40.053Z,43.17
2022-12-01T21:58:23.981Z,41.50
2022-12-01T22:00:54.295Z,46.22
2022-12-01T22:03:33.476Z,45.45
2022-12-01T22:06:28.635Z,45.75
2022-12-01T22:08:56.603Z,43.03
2022-12-01T22:11:26.801Z,42.90
2022-12-01T22:14:00.374Z,44.75
2022-12-01T22:16:33.062Z,43.78
2022-12-01T22:19:02.801Z,46.95
2022-12-01T22:21:36.063Z,45.50
2022-12-01T22:24:20.391Z,43.55
2022-12-01T22:26:50.921Z,45.75
2022-12-01T22:29:27.850Z,43.97
2022-12-01T22:32:21.502Z,42.33
2022-12-01T22:34:53.287Z,44.38
2022-12-01T22:37:24.342Z,42.92
2022-12-01T22:39:55.342Z,45.53
2022-12-01T22:42:31.446Z,43.72
2022-12-01T22:45:02.471Z,44.38
2022-12-01T22:47:34.349Z,46.05
2022-12-01T22:50:02.623Z,45.25
2022-12-01T22:52:31.149Z,46.83
2022-12-01T22:54:59.627Z,46.25
2022-12-01T22:57:33.265Z,46.97
2022-12-01T23:00:15.155Z,45.10
2022-12-01T23:02:44.953Z,46.33
2022-12-01T23:05:23.951Z,44.78
2022-12-01T23:07:52.862Z,45.75
2022-12-01T23:10:24.242Z,46.85
2022-12-01T23:12:53.915Z,46.03
2022-12-01T23:15:27.805Z,45.10
2022-12-01T23:17:57.741Z,44.28
2022-12-01T23:20:32.864Z,45.63
2022-12-01T23:23:03.544Z,46.58
2022-12-01T23:25:33.202Z,45.80
2022-12-01T23:28:04.814Z,43.72
2022-12-01T23:30:33.197Z,44.65
2022-12-01T23:33:12.998Z,45.15
2022-12-01T23:35:46.454Z,43.97
2022-12-01T23:38:18.050Z,46.25
2022-12-01T23:40:46.856Z,44.78
2022-12-01T23:43:20.657Z,44.78
2022-12-01T23:45:50.982Z,43.83
2022-12-01T23:48:23.822Z,44.60
2022-12-01T23:50:54.137Z,44.65
2022-12-01T23:53:30.746Z,45.72
2022-12-01T23:56:04.255Z,44.00
2022-12-01T23:58:32.707Z,45.72
